Main page
METAR-TAF:

METAR-TAF

Airports :

RAF Waddington

Waddington, England

latitude: 53-10N, longitude: 000-31W, elevation: 68 m

Current weather observation

The report was made 37 minutes ago, at 07:50 UTC
Wind 10 kt from the Northwest
Temperature 14°C
Humidity 67%
Pressure 1025 hPa
Visibility 10 km or more

METAR: EGXW 110750Z AUTO 32010KT 9999 SCT022/// 14/08 Q1025

Time: 09:27 (08:27 UTC)

Forecast

The report was made 15 hours and 30 minutes ago, at 16:57 UTC
Forecast valid from 10 at 18 UTC to 11 at 12 UTC
Wind 10 kt from the West
Visibility 10 km or more
Broken clouds at a height of 4500 ft
Probability 30% :
Temporary
from 10 at 18 UTC to 10 at 19 UTC
Visibility: 5000 m
Broken clouds at a height of 2400 ft, Cumulonimbus.
rain showers

TAF: EGXW 101657Z 1018/1112 28010KT 9999 BKN045 PROB30 TEMPO 1018/1019 5000 SHRA BKN024CB

Weather observations and forecasts of more than 4000 airports (METAR and TAF reports).

The available stations are represented by yellow and red dots on the map.

Hover mouse over dot to see the name of the station.

Then click to see weather observations and forecasts.

To change the map : click on the green buttons with a black cross to zoom in, on the green button with a dash to zoom out, or on the green arrows for adjacent maps.


METAR-TAF: